sensor_id;sensor_type;location;lat;lon;timestamp;pressure;altitude;pressure_sealevel;temperature;humidity
46007;BME280;31738;50.188;8.524;2024-03-17T00:02:00;99679.91;;;8.74;71.83
46007;BME280;31738;50.188;8.524;2024-03-17T00:04:26;99680.16;;;8.73;71.63
46007;BME280;31738;50.188;8.524;2024-03-17T00:06:52;99685.97;;;8.69;72.08
46007;BME280;31738;50.188;8.524;2024-03-17T00:09:18;99684.84;;;8.65;71.88
46007;BME280;31738;50.188;8.524;2024-03-17T00:11:44;99685.09;;;8.64;71.99
46007;BME280;31738;50.188;8.524;2024-03-17T00:14:10;99676.72;;;8.60;72.42
46007;BME280;31738;50.188;8.524;2024-03-17T00:16:37;99677.19;;;8.57;72.50
46007;BME280;31738;50.188;8.524;2024-03-17T00:19:02;99677.19;;;8.57;72.70
46007;BME280;31738;50.188;8.524;2024-03-17T00:21:28;99672.31;;;8.54;72.62
46007;BME280;31738;50.188;8.524;2024-03-17T00:23:54;99674.41;;;8.52;72.57
46007;BME280;31738;50.188;8.524;2024-03-17T00:26:20;99671.16;;;8.50;73.16
46007;BME280;31738;50.188;8.524;2024-03-17T00:28:46;99667.31;;;8.46;73.05
46007;BME280;31738;50.188;8.524;2024-03-17T00:31:14;99666.19;;;8.42;73.30
46007;BME280;31738;50.188;8.524;2024-03-17T00:33:41;99673.38;;;8.42;73.73
46007;BME280;31738;50.188;8.524;2024-03-17T00:36:07;99662.38;;;8.38;73.74
46007;BME280;31738;50.188;8.524;2024-03-17T00:38:32;99665.50;;;8.35;73.73
46007;BME280;31738;50.188;8.524;2024-03-17T00:40:58;99661.66;;;8.31;74.09
46007;BME280;31738;50.188;8.524;2024-03-17T00:43:24;99662.16;;;8.28;73.59
46007;BME280;31738;50.188;8.524;2024-03-17T00:45:52;99658.88;;;8.26;73.96
46007;BME280;31738;50.188;8.524;2024-03-17T00:48:18;99651.53;;;8.22;74.08
46007;BME280;31738;50.188;8.524;2024-03-17T00:50:44;99652.03;;;8.19;74.13
46007;BME280;31738;50.188;8.524;2024-03-17T00:53:12;99648.78;;;8.17;73.85
46007;BME280;31738;50.188;8.524;2024-03-17T00:55:38;99643.34;;;8.12;74.21
46007;BME280;31738;50.188;8.524;2024-03-17T00:58:03;99631.69;;;8.06;74.27
46007;BME280;31738;50.188;8.524;2024-03-17T01:00:29;99637.50;;;8.03;74.12
46007;BME280;31738;50.188;8.524;2024-03-17T01:02:55;99627.31;;;8.00;74.38
46007;BME280;31738;50.188;8.524;2024-03-17T01:05:21;99631.50;;;7.96;74.21
46007;BME280;31738;50.188;8.524;2024-03-17T01:07:46;99622.09;;;7.94;74.33
46007;BME280;31738;50.188;8.524;2024-03-17T01:10:15;99616.41;;;7.90;74.01
46007;BME280;31738;50.188;8.524;2024-03-17T01:12:40;99612.34;;;7.88;73.92
46007;BME280;31738;50.188;8.524;2024-03-17T01:15:06;99624.31;;;7.85;74.42
46007;BME280;31738;50.188;8.524;2024-03-17T01:17:32;99619.44;;;7.82;74.01
46007;BME280;31738;50.188;8.524;2024-03-17T01:19:58;99609.22;;;7.79;74.10
46007;BME280;31738;50.188;8.524;2024-03-17T01:22:23;99605.97;;;7.77;74.47
46007;BME280;31738;50.188;8.524;2024-03-17T01:24:49;99605.63;;;7.74;74.53
46007;BME280;31738;50.188;8.524;2024-03-17T01:27:14;99602.59;;;7.70;74.21
46007;BME280;31738;50.188;8.524;2024-03-17T01:29:44;99605.75;;;7.67;74.42
46007;BME280;31738;50.188;8.524;2024-03-17T01:32:10;99600.88;;;7.64;74.39
46007;BME280;31738;50.188;8.524;2024-03-17T01:34:37;99598.66;;;7.61;74.28
46007;BME280;31738;50.188;8.524;2024-03-17T01:37:03;99591.34;;;7.57;74.49
46007;BME280;31738;50.188;8.524;2024-03-17T01:39:30;99591.22;;;7.52;74.54
46007;BME280;31738;50.188;8.524;2024-03-17T01:41:58;99595.44;;;7.48;74.17
46007;BME280;31738;50.188;8.524;2024-03-17T01:44:25;99598.78;;;7.43;74.43
46007;BME280;31738;50.188;8.524;2024-03-17T01:46:51;99597.59;;;7.39;74.07
46007;BME280;31738;50.188;8.524;2024-03-17T01:49:17;99583.72;;;7.37;74.47
46007;BME280;31738;50.188;8.524;2024-03-17T01:51:48;99589.50;;;7.34;74.58
46007;BME280;31738;50.188;8.524;2024-03-17T01:54:14;99584.63;;;7.31;74.25
46007;BME280;31738;50.188;8.524;2024-03-17T01:56:40;99584.03;;;7.29;74.41
46007;BME280;31738;50.188;8.524;2024-03-17T01:59:08;99576.28;;;7.28;74.21
46007;BME280;31738;50.188;8.524;2024-03-17T02:01:35;99573.47;;;7.23;74.36
46007;BME280;31738;50.188;8.524;2024-03-17T02:04:01;99571.28;;;7.20;74.51
46007;BME280;31738;50.188;8.524;2024-03-17T02:06:26;99575.22;;;7.17;74.25
46007;BME280;31738;50.188;8.524;2024-03-17T02:08:53;99576.72;;;7.13;74.57
46007;BME280;31738;50.188;8.524;2024-03-17T02:11:30;99577.16;;;7.10;74.57
46007;BME280;31738;50.188;8.524;2024-03-17T02:13:57;99574.41;;;7.05;74.53
46007;BME280;31738;50.188;8.524;2024-03-17T02:16:23;99565.81;;;7.03;74.43
46007;BME280;31738;50.188;8.524;2024-03-17T02:18:49;99560.94;;;7.00;74.60
46007;BME280;31738;50.188;8.524;2024-03-17T02:21:19;99566.72;;;6.97;74.60
46007;BME280;31738;50.188;8.524;2024-03-17T02:23:46;99568.81;;;6.95;75.01
46007;BME280;31738;50.188;8.524;2024-03-17T02:26:11;99569.50;;;6.90;74.56
46007;BME280;31738;50.188;8.524;2024-03-17T02:28:44;99565.44;;;6.88;74.44
46007;BME280;31738;50.188;8.524;2024-03-17T02:31:11;99562.63;;;6.83;74.58
46007;BME280;31738;50.188;8.524;2024-03-17T02:33:37;99564.72;;;6.81;74.72
46007;BME280;31738;50.188;8.524;2024-03-17T02:36:04;99562.50;;;6.78;74.65
46007;BME280;31738;50.188;8.524;2024-03-17T02:38:33;99558.69;;;6.74;75.00
46007;BME280;31738;50.188;8.524;2024-03-17T02:41:17;99567.59;;;6.68;75.02
46007;BME280;31738;50.188;8.524;2024-03-17T02:43:42;99562.72;;;6.65;74.67
46007;BME280;31738;50.188;8.524;2024-03-17T02:50:14;99547.81;;;6.46;75.30
46007;BME280;31738;50.188;8.524;2024-03-17T02:52:40;99544.09;;;6.47;75.27
46007;BME280;31738;50.188;8.524;2024-03-17T02:55:05;99544.91;;;6.47;75.19
46007;BME280;31738;50.188;8.524;2024-03-17T02:57:31;99544.09;;;6.47;75.23
46007;BME280;31738;50.188;8.524;2024-03-17T02:59:58;99531.00;;;6.45;74.81
46007;BME280;31738;50.188;8.524;2024-03-17T03:02:23;99535.53;;;6.45;74.93
46007;BME280;31738;50.188;8.524;2024-03-17T03:04:50;99536.31;;;6.45;75.06
46007;BME280;31738;50.188;8.524;2024-03-17T03:07:15;99538.44;;;6.43;74.98
46007;BME280;31738;50.188;8.524;2024-03-17T03:09:41;99536.00;;;6.42;75.03
46007;BME280;31738;50.188;8.524;2024-03-17T03:12:06;99542.34;;;6.41;75.59
46007;BME280;31738;50.188;8.524;2024-03-17T03:14:33;99545.00;;;6.41;75.33
46007;BME280;31738;50.188;8.524;2024-03-17T03:16:59;99538.66;;;6.42;75.52
46007;BME280;31738;50.188;8.524;2024-03-17T03:19:26;99530.66;;;6.42;75.31
46007;BME280;31738;50.188;8.524;2024-03-17T03:21:51;99538.66;;;6.42;75.30
46007;BME280;31738;50.188;8.524;2024-03-17T03:24:17;99539.66;;;6.41;75.69
46007;BME280;31738;50.188;8.524;2024-03-17T03:26:43;99546.66;;;6.42;75.44
46007;BME280;31738;50.188;8.524;2024-03-17T03:29:09;99546.66;;;6.42;75.33
46007;BME280;31738;50.188;8.524;2024-03-17T03:31:36;99549.53;;;6.40;75.40
46007;BME280;31738;50.188;8.524;2024-03-17T03:34:04;99550.78;;;6.38;75.55
46007;BME280;31738;50.188;8.524;2024-03-17T03:36:33;99545.44;;;6.38;75.74
46007;BME280;31738;50.188;8.524;2024-03-17T03:38:58;99538.50;;;6.37;75.96
46007;BME280;31738;50.188;8.524;2024-03-17T03:41:24;99540.59;;;6.35;75.78
46007;BME280;31738;50.188;8.524;2024-03-17T03:43:52;99546.97;;;6.34;75.82
46007;BME280;31738;50.188;8.524;2024-03-17T03:46:17;99549.03;;;6.32;75.68
46007;BME280;31738;50.188;8.524;2024-03-17T03:48:43;99552.13;;;6.29;76.14
46007;BME280;31738;50.188;8.524;2024-03-17T03:51:09;99547.25;;;6.26;76.06
46007;BME280;31738;50.188;8.524;2024-03-17T03:53:36;99555.47;;;6.24;75.89
46007;BME280;31738;50.188;8.524;2024-03-17T03:56:05;99548.53;;;6.23;75.94
46007;BME280;31738;50.188;8.524;2024-03-17T03:58:36;99554.91;;;6.22;75.88
46007;BME280;31738;50.188;8.524;2024-03-17T04:01:09;99550.59;;;6.21;76.13
46007;BME280;31738;50.188;8.524;2024-03-17T04:03:37;99547.34;;;6.19;76.58
46007;BME280;31738;50.188;8.524;2024-03-17T04:06:07;99545.72;;;6.18;76.20
46007;BME280;31738;50.188;8.524;2024-03-17T04:08:33;99548.03;;;6.15;76.41
46007;BME280;31738;50.188;8.524;2024-03-17T04:10:59;99546.41;;;6.14;76.66
46007;BME280;31738;50.188;8.524;2024-03-17T04:13:27;99556.47;;;6.12;76.47
46007;BME280;31738;50.188;8.524;2024-03-17T04:15:52;99553.22;;;6.10;76.46
46007;BME280;31738;50.188;8.524;2024-03-17T04:18:25;99560.41;;;6.09;76.63
46007;BME280;31738;50.188;8.524;2024-03-17T04:20:54;99561.66;;;6.07;76.53
46007;BME280;31738;50.188;8.524;2024-03-17T04:23:21;99558.63;;;6.03;76.69
46007;BME280;31738;50.188;8.524;2024-03-17T04:25:48;99559.91;;;6.01;76.94
46007;BME280;31738;50.188;8.524;2024-03-17T04:28:14;99551.91;;;6.01;76.93
46007;BME280;31738;50.188;8.524;2024-03-17T04:30:40;99552.13;;;5.99;76.84
46007;BME280;31738;50.188;8.524;2024-03-17T04:33:05;99540.66;;;5.99;76.91
46007;BME280;31738;50.188;8.524;2024-03-17T04:35:38;99548.06;;;5.97;77.02
46007;BME280;31738;50.188;8.524;2024-03-17T04:38:05;99544.81;;;5.95;76.98
46007;BME280;31738;50.188;8.524;2024-03-17T04:40:32;99551.75;;;5.96;77.18
46007;BME280;31738;50.188;8.524;2024-03-17T04:42:57;99551.75;;;5.96;76.91
46007;BME280;31738;50.188;8.524;2024-03-17T04:45:23;99553.00;;;5.93;77.24
46007;BME280;31738;50.188;8.524;2024-03-17T04:47:48;99554.03;;;5.92;77.19
46007;BME280;31738;50.188;8.524;2024-03-17T04:50:14;99553.00;;;5.93;77.27
46007;BME280;31738;50.188;8.524;2024-03-17T04:52:39;99550.56;;;5.92;77.33
46007;BME280;31738;50.188;8.524;2024-03-17T04:55:05;99554.03;;;5.92;77.46
46007;BME280;31738;50.188;8.524;2024-03-17T04:57:30;99558.53;;;5.92;77.71
46007;BME280;31738;50.188;8.524;2024-03-17T04:59:56;99557.53;;;5.93;77.67
46007;BME280;31738;50.188;8.524;2024-03-17T05:02:21;99555.09;;;5.91;77.55
46007;BME280;31738;50.188;8.524;2024-03-17T05:04:51;99553.22;;;5.92;77.16
46007;BME280;31738;50.188;8.524;2024-03-17T05:07:16;99550.56;;;5.92;77.65
46007;BME280;31738;50.188;8.524;2024-03-17T05:09:42;99553.81;;;5.94;77.91
46007;BME280;31738;50.188;8.524;2024-03-17T05:12:09;99553.38;;;5.97;77.92
46007;BME280;31738;50.188;8.524;2024-03-17T05:14:35;99547.59;;;6.00;77.94
46007;BME280;31738;50.188;8.524;2024-03-17T05:17:01;99549.03;;;6.02;77.60
46007;BME280;31738;50.188;8.524;2024-03-17T05:19:26;99550.41;;;6.05;77.62
46007;BME280;31738;50.188;8.524;2024-03-17T05:21:52;99551.25;;;6.05;77.60
46007;BME280;31738;50.188;8.524;2024-03-17T05:24:17;99547.53;;;6.06;77.68
46007;BME280;31738;50.188;8.524;2024-03-17T05:26:42;99543.03;;;6.07;77.85
46007;BME280;31738;50.188;8.524;2024-03-17T05:29:08;99528.66;;;6.08;77.91
46007;BME280;31738;50.188;8.524;2024-03-17T05:31:34;99531.69;;;6.11;77.98
46007;BME280;31738;50.188;8.524;2024-03-17T05:33:59;99529.81;;;6.12;78.10
46007;BME280;31738;50.188;8.524;2024-03-17T05:36:25;99531.47;;;6.13;77.70
46007;BME280;31738;50.188;8.524;2024-03-17T05:38:51;99524.50;;;6.12;77.83
46007;BME280;31738;50.188;8.524;2024-03-17T05:41:16;99534.13;;;6.13;77.61
46007;BME280;31738;50.188;8.524;2024-03-17T05:43:42;99532.50;;;6.12;77.64
46007;BME280;31738;50.188;8.524;2024-03-17T05:46:11;99538.41;;;6.14;77.86
46007;BME280;31738;50.188;8.524;2024-03-17T05:48:39;99536.81;;;6.13;77.82
46007;BME280;31738;50.188;8.524;2024-03-17T05:51:06;99535.97;;;6.12;78.10
46007;BME280;31738;50.188;8.524;2024-03-17T05:53:31;99540.25;;;6.13;77.73
46007;BME280;31738;50.188;8.524;2024-03-17T05:56:01;99543.75;;;6.14;77.85
46007;BME280;31738;50.188;8.524;2024-03-17T05:58:27;99535.75;;;6.14;77.69
46007;BME280;31738;50.188;8.524;2024-03-17T06:00:52;99534.13;;;6.13;77.74
46007;BME280;31738;50.188;8.524;2024-03-17T06:03:18;99543.75;;;6.14;77.69
46007;BME280;31738;50.188;8.524;2024-03-17T06:05:44;99538.41;;;6.14;77.95
46007;BME280;31738;50.188;8.524;2024-03-17T06:08:12;99537.38;;;6.15;77.67
46007;BME280;31738;50.188;8.524;2024-03-17T06:10:43;99539.81;;;6.16;77.81
46007;BME280;31738;50.188;8.524;2024-03-17T06:13:10;99541.69;;;6.16;77.72
46007;BME280;31738;50.188;8.524;2024-03-17T06:15:40;99541.69;;;6.16;78.05
46007;BME280;31738;50.188;8.524;2024-03-17T06:18:06;99541.22;;;6.19;78.07
46007;BME280;31738;50.188;8.524;2024-03-17T06:20:34;99532.19;;;6.20;78.04
46007;BME280;31738;50.188;8.524;2024-03-17T06:23:00;99538.72;;;6.24;78.15
46007;BME280;31738;50.188;8.524;2024-03-17T06:25:26;99533.72;;;6.27;78.11
46007;BME280;31738;50.188;8.524;2024-03-17T06:27:52;99535.69;;;6.32;77.94
46007;BME280;31738;50.188;8.524;2024-03-17T06:30:17;99528.91;;;6.36;78.04
46007;BME280;31738;50.188;8.524;2024-03-17T06:32:44;99524.97;;;6.38;77.96
46007;BME280;31738;50.188;8.524;2024-03-17T06:35:11;99529.00;;;6.41;78.00
46007;BME280;31738;50.188;8.524;2024-03-17T06:37:37;99523.22;;;6.44;77.97
46007;BME280;31738;50.188;8.524;2024-03-17T06:40:04;99527.31;;;6.46;78.01
46007;BME280;31738;50.188;8.524;2024-03-17T06:42:30;99527.22;;;6.53;78.12
46007;BME280;31738;50.188;8.524;2024-03-17T06:44:56;99519.34;;;6.58;78.07
46007;BME280;31738;50.188;8.524;2024-03-17T06:47:21;99515.53;;;6.65;78.19
46007;BME280;31738;50.188;8.524;2024-03-17T06:49:47;99519.16;;;6.71;77.76
46007;BME280;31738;50.188;8.524;2024-03-17T06:52:12;99518.22;;;6.77;77.99
46007;BME280;31738;50.188;8.524;2024-03-17T06:54:38;99521.03;;;6.82;77.71
46007;BME280;31738;50.188;8.524;2024-03-17T06:57:04;99523.56;;;6.88;77.78
46007;BME280;31738;50.188;8.524;2024-03-17T06:59:33;99528.34;;;6.98;77.64
46007;BME280;31738;50.188;8.524;2024-03-17T07:01:58;99518.38;;;7.05;77.67
46007;BME280;31738;50.188;8.524;2024-03-17T07:04:24;99511.91;;;7.13;77.69
46007;BME280;31738;50.188;8.524;2024-03-17T07:06:49;99522.44;;;7.19;77.18
46007;BME280;31738;50.188;8.524;2024-03-17T07:09:15;99517.81;;;7.26;77.44
46007;BME280;31738;50.188;8.524;2024-03-17T07:11:42;99516.88;;;7.32;76.97
46007;BME280;31738;50.188;8.524;2024-03-17T07:14:09;99515.13;;;7.38;77.03
46007;BME280;31738;50.188;8.524;2024-03-17T07:16:35;99513.94;;;7.45;76.80
46007;BME280;31738;50.188;8.524;2024-03-17T07:19:01;99519.41;;;7.50;76.43
46007;BME280;31738;50.188;8.524;2024-03-17T07:21:27;99520.31;;;7.56;75.75
46007;BME280;31738;50.188;8.524;2024-03-17T07:23:52;99521.25;;;7.61;75.71
46007;BME280;31738;50.188;8.524;2024-03-17T07:26:18;99529.13;;;7.68;75.91
46007;BME280;31738;50.188;8.524;2024-03-17T07:28:43;99527.97;;;7.75;75.77
46007;BME280;31738;50.188;8.524;2024-03-17T07:31:10;99529.44;;;7.83;76.09
46007;BME280;31738;50.188;8.524;2024-03-17T07:33:35;99527.69;;;7.88;75.91
46007;BME280;31738;50.188;8.524;2024-03-17T07:36:01;99524.06;;;7.94;75.07
46007;BME280;31738;50.188;8.524;2024-03-17T07:38:29;99525.78;;;8.00;74.17
46007;BME280;31738;50.188;8.524;2024-03-17T07:43:24;99531.69;;;8.14;73.32
46007;BME280;31738;50.188;8.524;2024-03-17T07:46:00;99539.53;;;8.20;72.86
46007;BME280;31738;50.188;8.524;2024-03-17T07:48:25;99542.94;;;8.27;71.85
46007;BME280;31738;50.188;8.524;2024-03-17T07:50:59;99546.03;;;8.36;70.77
46007;BME280;31738;50.188;8.524;2024-03-17T07:53:26;99556.00;;;8.40;71.11
46007;BME280;31738;50.188;8.524;2024-03-17T07:58:27;99549.78;;;8.51;70.64
46007;BME280;31738;50.188;8.524;2024-03-17T08:00:56;99557.41;;;8.43;70.60
46007;BME280;31738;50.188;8.524;2024-03-17T08:03:22;99554.91;;;8.53;69.47
46007;BME280;31738;50.188;8.524;2024-03-17T08:05:50;99555.91;;;8.63;69.15
46007;BME280;31738;50.188;8.524;2024-03-17T08:08:16;99563.53;;;8.72;69.91
46007;BME280;31738;50.188;8.524;2024-03-17T08:10:42;99564.75;;;8.81;69.07
46007;BME280;31738;50.188;8.524;2024-03-17T08:13:07;99576.78;;;8.95;68.69
46007;BME280;31738;50.188;8.524;2024-03-17T08:15:34;99582.53;;;9.03;68.09
46007;BME280;31738;50.188;8.524;2024-03-17T08:18:00;99582.47;;;9.15;67.80
46007;BME280;31738;50.188;8.524;2024-03-17T08:20:25;99588.56;;;9.27;67.24
46007;BME280;31738;50.188;8.524;2024-03-17T08:22:51;99595.19;;;9.41;67.35
46007;BME280;31738;50.188;8.524;2024-03-17T08:25:17;99597.47;;;9.49;66.74
46007;BME280;31738;50.188;8.524;2024-03-17T08:27:42;99597.84;;;9.57;66.42
46007;BME280;31738;50.188;8.524;2024-03-17T08:30:09;99595.56;;;9.66;66.13
46007;BME280;31738;50.188;8.524;2024-03-17T08:32:35;99604.50;;;9.71;65.74
46007;BME280;31738;50.188;8.524;2024-03-17T08:35:00;99606.69;;;9.74;65.16
46007;BME280;31738;50.188;8.524;2024-03-17T08:37:26;99611.31;;;9.79;65.13
46007;BME280;31738;50.188;8.524;2024-03-17T08:39:52;99616.50;;;9.85;64.69
46007;BME280;31738;50.188;8.524;2024-03-17T08:42:18;99625.72;;;9.94;64.55
46007;BME280;31738;50.188;8.524;2024-03-17T08:44:46;99617.28;;;10.02;64.01
46007;BME280;31738;50.188;8.524;2024-03-17T08:47:11;99623.53;;;10.08;63.56
46007;BME280;31738;50.188;8.524;2024-03-17T08:49:37;99625.78;;;10.16;63.30
46007;BME280;31738;50.188;8.524;2024-03-17T08:52:02;99620.53;;;10.26;63.17
46007;BME280;31738;50.188;8.524;2024-03-17T08:54:28;99631.94;;;10.38;62.79
46007;BME280;31738;50.188;8.524;2024-03-17T08:56:53;99631.28;;;10.48;62.04
46007;BME280;31738;50.188;8.524;2024-03-17T08:59:19;99628.97;;;10.56;62.36
46007;BME280;31738;50.188;8.524;2024-03-17T09:01:44;99618.28;;;10.61;62.26
46007;BME280;31738;50.188;8.524;2024-03-17T09:04:10;99626.19;;;10.73;62.12
46007;BME280;31738;50.188;8.524;2024-03-17T09:06:37;99634.66;;;10.86;62.09
46007;BME280;31738;50.188;8.524;2024-03-17T09:09:02;99638.00;;;10.98;61.43
46007;BME280;31738;50.188;8.524;2024-03-17T09:11:28;99637.50;;;11.01;61.43
46007;BME280;31738;50.188;8.524;2024-03-17T09:14:08;99639.91;;;11.03;61.17
46007;BME280;31738;50.188;8.524;2024-03-17T09:17:43;99639.84;;;10.93;61.99
46007;BME280;31738;50.188;8.524;2024-03-17T09:20:13;99643.56;;;10.92;61.92
46007;BME280;31738;50.188;8.524;2024-03-17T09:23:06;99645.78;;;11.00;61.80
46007;BME280;31738;50.188;8.524;2024-03-17T09:25:43;99655.97;;;10.98;61.83
46007;BME280;31738;50.188;8.524;2024-03-17T09:28:23;99646.09;;;11.03;60.82
46007;BME280;31738;50.188;8.524;2024-03-17T09:31:05;99638.09;;;11.08;61.31
46007;BME280;31738;50.188;8.524;2024-03-17T09:34:13;99634.22;;;11.26;61.02
46007;BME280;31738;50.188;8.524;2024-03-17T09:36:43;99637.50;;;11.33;61.01
46007;BME280;31738;50.188;8.524;2024-03-17T09:39:14;99637.34;;;11.44;61.19
46007;BME280;31738;50.188;8.524;2024-03-17T09:41:43;99628.31;;;11.55;61.21
46007;BME280;31738;50.188;8.524;2024-03-17T09:44:12;99634.28;;;11.62;61.05
46007;BME280;31738;50.188;8.524;2024-03-17T09:46:44;99638.09;;;11.66;60.67
46007;BME280;31738;50.188;8.524;2024-03-17T09:49:17;99635.97;;;11.73;60.42
46007;BME280;31738;50.188;8.524;2024-03-17T09:51:51;99628.81;;;11.89;60.46
46007;BME280;31738;50.188;8.524;2024-03-17T09:54:19;99631.03;;;11.97;60.68
46007;BME280;31738;50.188;8.524;2024-03-17T09:56:45;99626.22;;;12.04;59.83
46007;BME280;31738;50.188;8.524;2024-03-17T09:59:12;99629.75;;;12.09;60.59
46007;BME280;31738;50.188;8.524;2024-03-17T10:01:40;99631.94;;;12.18;60.08
46007;BME280;31738;50.188;8.524;2024-03-17T10:04:31;99626.09;;;12.31;59.48
46007;BME280;31738;50.188;8.524;2024-03-17T10:06:57;99618.56;;;12.33;60.04
46007;BME280;31738;50.188;8.524;2024-03-17T10:09:22;99617.50;;;12.39;59.76
46007;BME280;31738;50.188;8.524;2024-03-17T10:11:48;99624.53;;;12.40;59.76
46007;BME280;31738;50.188;8.524;2024-03-17T10:14:17;99629.13;;;12.49;59.54
46007;BME280;31738;50.188;8.524;2024-03-17T10:16:43;99629.41;;;12.53;59.09
46007;BME280;31738;50.188;8.524;2024-03-17T10:19:22;99622.66;;;12.50;58.96
46007;BME280;31738;50.188;8.524;2024-03-17T10:21:49;99621.88;;;12.55;58.81
46007;BME280;31738;50.188;8.524;2024-03-17T10:24:23;99628.63;;;12.62;59.12
46007;BME280;31738;50.188;8.524;2024-03-17T10:26:50;99625.13;;;12.62;59.14
46007;BME280;31738;50.188;8.524;2024-03-17T10:29:29;99634.28;;;12.61;58.20
46007;BME280;31738;50.188;8.524;2024-03-17T10:31:59;99641.78;;;12.59;57.86
46007;BME280;31738;50.188;8.524;2024-03-17T10:34:28;99640.22;;;12.63;58.18
46007;BME280;31738;50.188;8.524;2024-03-17T10:37:14;99636.47;;;12.69;57.60
46007;BME280;31738;50.188;8.524;2024-03-17T10:39:41;99644.25;;;12.65;56.82
46007;BME280;31738;50.188;8.524;2024-03-17T10:42:12;99639.41;;;12.62;57.30
46007;BME280;31738;50.188;8.524;2024-03-17T10:44:40;99641.34;;;12.77;57.78
46007;BME280;31738;50.188;8.524;2024-03-17T10:47:07;99641.38;;;12.97;56.83
46007;BME280;31738;50.188;8.524;2024-03-17T10:49:38;99648.44;;;13.08;56.53
46007;BME280;31738;50.188;8.524;2024-03-17T10:52:16;99640.34;;;13.13;56.76
46007;BME280;31738;50.188;8.524;2024-03-17T10:54:53;99637.41;;;13.19;56.73
46007;BME280;31738;50.188;8.524;2024-03-17T10:57:40;99636.88;;;13.17;57.34
46007;BME280;31738;50.188;8.524;2024-03-17T11:00:12;99629.03;;;13.16;56.73
46007;BME280;31738;50.188;8.524;2024-03-17T11:02:43;99621.75;;;13.21;56.95
46007;BME280;31738;50.188;8.524;2024-03-17T11:05:15;99633.94;;;13.29;56.89
46007;BME280;31738;50.188;8.524;2024-03-17T11:07:43;99630.41;;;13.33;56.42
46007;BME280;31738;50.188;8.524;2024-03-17T11:10:16;99635.00;;;13.38;56.22
46007;BME280;31738;50.188;8.524;2024-03-17T11:12:45;99634.47;;;13.41;56.61
46007;BME280;31738;50.188;8.524;2024-03-17T11:17:44;99636.09;;;13.52;56.32
46007;BME280;31738;50.188;8.524;2024-03-17T11:22:43;99636.59;;;13.54;56.22
46007;BME280;31738;50.188;8.524;2024-03-17T11:27:53;99634.72;;;13.54;55.82
46007;BME280;31738;50.188;8.524;2024-03-17T11:39:01;99633.63;;;13.70;55.66
46007;BME280;31738;50.188;8.524;2024-03-17T11:41:36;99626.88;;;13.78;55.90
46007;BME280;31738;50.188;8.524;2024-03-17T11:47:04;99622.84;;;13.86;55.43
46007;BME280;31738;50.188;8.524;2024-03-17T11:51:56;99631.69;;;14.06;54.93
46007;BME280;31738;50.188;8.524;2024-03-17T11:54:24;99626.22;;;14.21;55.08
46007;BME280;31738;50.188;8.524;2024-03-17T11:56:53;99625.97;;;14.33;54.69
46007;BME280;31738;50.188;8.524;2024-03-17T11:59:19;99631.34;;;14.38;54.57
46007;BME280;31738;50.188;8.524;2024-03-17T12:01:48;99621.88;;;14.45;54.86
46007;BME280;31738;50.188;8.524;2024-03-17T12:04:15;99615.38;;;14.51;54.73
46007;BME280;31738;50.188;8.524;2024-03-17T12:06:58;99621.81;;;14.60;54.49
46007;BME280;31738;50.188;8.524;2024-03-17T12:09:31;99614.00;;;14.54;54.31
46007;BME280;31738;50.188;8.524;2024-03-17T12:14:30;99613.78;;;14.40;53.82
46007;BME280;31738;50.188;8.524;2024-03-17T12:16:57;99616.56;;;14.25;53.99
46007;BME280;31738;50.188;8.524;2024-03-17T12:19:24;99616.28;;;14.27;54.46
46007;BME280;31738;50.188;8.524;2024-03-17T12:21:57;99611.63;;;14.42;53.75
46007;BME280;31738;50.188;8.524;2024-03-17T12:24:24;99606.72;;;14.49;54.00
46007;BME280;31738;50.188;8.524;2024-03-17T12:26:52;99608.31;;;14.60;54.13
46007;BME280;31738;50.188;8.524;2024-03-17T12:32:05;99596.81;;;14.83;54.19
46007;BME280;31738;50.188;8.524;2024-03-17T12:34:32;99591.91;;;14.90;53.56
46007;BME280;31738;50.188;8.524;2024-03-17T12:36:59;99595.72;;;14.84;53.20
46007;BME280;31738;50.188;8.524;2024-03-17T12:39:30;99591.44;;;14.83;53.44
46007;BME280;31738;50.188;8.524;2024-03-17T12:42:13;99596.28;;;14.81;53.15
46007;BME280;31738;50.188;8.524;2024-03-17T12:44:47;99592.00;;;14.75;53.36
46007;BME280;31738;50.188;8.524;2024-03-17T12:47:17;99588.78;;;14.73;53.56
46007;BME280;31738;50.188;8.524;2024-03-17T12:49:49;99586.03;;;14.78;53.28
46007;BME280;31738;50.188;8.524;2024-03-17T12:55:01;99589.31;;;14.70;53.02
46007;BME280;31738;50.188;8.524;2024-03-17T12:57:47;99581.84;;;14.62;53.46
46007;BME280;31738;50.188;8.524;2024-03-17T13:00:32;99578.03;;;14.68;53.60
46007;BME280;31738;50.188;8.524;2024-03-17T13:03:05;99573.34;;;14.79;53.69
46007;BME280;31738;50.188;8.524;2024-03-17T13:05:32;99580.66;;;14.78;53.01
46007;BME280;31738;50.188;8.524;2024-03-17T13:07:58;99577.13;;;14.78;53.34
46007;BME280;31738;50.188;8.524;2024-03-17T13:10:25;99570.59;;;14.84;53.54
46007;BME280;31738;50.188;8.524;2024-03-17T13:13:07;99557.84;;;14.94;53.34
46007;BME280;31738;50.188;8.524;2024-03-17T13:15:34;99557.88;;;14.89;53.04
46007;BME280;31738;50.188;8.524;2024-03-17T13:18:03;99556.28;;;14.88;53.26
46007;BME280;31738;50.188;8.524;2024-03-17T13:20:29;99551.91;;;14.92;52.89
46007;BME280;31738;50.188;8.524;2024-03-17T13:22:55;99548.38;;;14.97;53.17
46007;BME280;31738;50.188;8.524;2024-03-17T13:25:24;99531.44;;;14.86;52.97
46007;BME280;31738;50.188;8.524;2024-03-17T13:27:54;99529.81;;;14.85;53.31
46007;BME280;31738;50.188;8.524;2024-03-17T13:30:22;99528.75;;;14.81;53.15
46007;BME280;31738;50.188;8.524;2024-03-17T13:32:49;99524.50;;;14.70;53.41
46007;BME280;31738;50.188;8.524;2024-03-17T13:35:22;99509.97;;;14.66;53.93
46007;BME280;31738;50.188;8.524;2024-03-17T13:37:49;99515.69;;;14.60;54.22
46007;BME280;31738;50.188;8.524;2024-03-17T13:40:18;99507.00;;;14.63;54.79
46007;BME280;31738;50.188;8.524;2024-03-17T13:42:52;99504.25;;;14.73;54.99
46007;BME280;31738;50.188;8.524;2024-03-17T13:45:20;99497.72;;;14.79;54.63
46007;BME280;31738;50.188;8.524;2024-03-17T13:47:47;99493.63;;;14.86;54.68
46007;BME280;31738;50.188;8.524;2024-03-17T13:50:16;99498.44;;;14.89;54.60
46007;BME280;31738;50.188;8.524;2024-03-17T13:52:42;99492.19;;;14.94;54.34